createdAt,value
2023-04-18T00:01:55.704Z,96713.59
2023-04-18T00:05:08.555Z,96717.50
2023-04-18T00:07:41.930Z,96720.56
2023-04-18T00:10:37.235Z,96712.25
2023-04-18T00:13:09.171Z,96712.16
2023-04-18T00:16:04.286Z,96705.53
2023-04-18T00:18:32.248Z,96711.75
2023-04-18T00:21:19.649Z,96712.44
2023-04-18T00:24:25.488Z,96709.53
2023-04-18T00:27:15.974Z,96705.38
2023-04-18T00:30:09.123Z,96715.06
2023-04-18T00:32:57.384Z,96714.78
2023-04-18T00:35:39.777Z,96704.56
2023-04-18T00:38:19.622Z,96695.75
2023-04-18T00:40:48.258Z,96705.41
2023-04-18T00:43:47.543Z,96700.31
2023-04-18T00:46:23.400Z,96697.25
2023-04-18T00:49:02.133Z,96698.13
2023-04-18T00:51:30.173Z,96697.69
2023-04-18T00:54:32.965Z,96690.81
2023-04-18T00:57:18.406Z,96700.25
2023-04-18T01:02:40.281Z,96698.59
2023-04-18T01:05:21.673Z,96696.16
2023-04-18T01:07:55.988Z,96696.81
2023-04-18T01:11:02.944Z,96687.88
2023-04-18T01:13:42.575Z,96689.41
2023-04-18T01:16:21.993Z,96691.91
2023-04-18T01:24:41.400Z,96695.16
2023-04-18T01:27:32.472Z,96698.63
2023-04-18T01:30:24.070Z,96694.31
2023-04-18T01:33:21.382Z,96692.69
2023-04-18T01:35:51.873Z,96692.84
2023-04-18T01:38:18.997Z,96691.59
2023-04-18T01:40:51.992Z,96694.06
2023-04-18T01:44:27.109Z,96692.78
2023-04-18T01:47:29.805Z,96688.50
2023-04-18T01:49:48.573Z,96688.25
2023-04-18T01:52:17.742Z,96683.56
2023-04-18T01:54:48.502Z,96682.16
2023-04-18T01:57:19.186Z,96681.50
2023-04-18T01:59:52.342Z,96683.72
2023-04-18T02:02:22.719Z,96690.47
2023-04-18T02:04:53.663Z,96687.69
2023-04-18T02:07:24.487Z,96685.50
2023-04-18T02:09:51.268Z,96692.25
2023-04-18T02:12:34.851Z,96688.63
2023-04-18T02:15:01.776Z,96687.66
2023-04-18T02:17:47.761Z,96693.31
2023-04-18T02:20:39.451Z,96690.66
2023-04-18T02:23:38.363Z,96698.09
2023-04-18T02:26:12.136Z,96689.00
2023-04-18T02:29:08.405Z,96694.63
2023-04-18T02:31:38.446Z,96703.84
2023-04-18T02:34:22.126Z,96700.25
2023-04-18T02:36:52.950Z,96702.47
2023-04-18T02:39:24.861Z,96706.56
2023-04-18T02:41:55.954Z,96713.13
2023-04-18T02:44:39.420Z,96716.97
2023-04-18T02:47:55.875Z,96721.66
2023-04-18T02:50:11.449Z,96725.75
2023-04-18T02:53:08.858Z,96729.66
2023-04-18T02:58:28.559Z,96726.38
2023-04-18T03:03:40.296Z,96726.19
2023-04-18T03:06:16.114Z,96739.69
2023-04-18T03:08:44.511Z,96723.84
2023-04-18T03:11:16.703Z,96731.44
2023-04-18T03:13:51.195Z,96737.53
2023-04-18T03:16:18.029Z,96733.38
2023-04-18T03:18:45.303Z,96744.41
2023-04-18T03:21:12.056Z,96747.72
2023-04-18T03:23:41.389Z,96751.91
2023-04-18T03:26:14.443Z,96759.19
2023-04-18T03:28:41.313Z,96758.34
2023-04-18T03:33:54.716Z,96766.25
2023-04-18T03:36:25.781Z,96767.38
2023-04-18T03:38:52.531Z,96768.09
2023-04-18T03:41:20.225Z,96775.66
2023-04-18T03:43:48.301Z,96778.28
2023-04-18T03:46:28.473Z,96779.81
2023-04-18T03:48:58.957Z,96782.47
2023-04-18T03:51:26.508Z,96786.72
2023-04-18T03:53:53.504Z,96790.88
2023-04-18T03:56:20.254Z,96788.00
2023-04-18T03:58:50.484Z,96790.84
2023-04-18T04:01:17.398Z,96792.69
2023-04-18T04:03:44.367Z,96790.88
2023-04-18T04:06:11.210Z,96794.22
2023-04-18T04:08:38.252Z,96792.84
2023-04-18T04:11:05.506Z,96785.25
2023-04-18T04:13:32.447Z,96785.13
2023-04-18T04:18:42.072Z,96783.59
2023-04-18T04:21:29.001Z,96796.19
2023-04-18T04:26:51.277Z,96801.59
2023-04-18T04:32:26.797Z,96789.59
2023-04-18T04:34:53.887Z,96793.06
2023-04-18T04:37:30.260Z,96792.78
2023-04-18T04:40:15.501Z,96800.06
2023-04-18T04:42:53.555Z,96798.44
2023-04-18T04:45:30.291Z,96797.06
2023-04-18T04:47:57.590Z,96796.47
2023-04-18T04:50:25.210Z,96802.56
2023-04-18T04:53:16.670Z,96803.53
2023-04-18T04:55:43.746Z,96802.00
2023-04-18T04:58:11.503Z,96820.22
2023-04-18T05:00:38.402Z,96811.75
2023-04-18T05:03:05.455Z,96814.50
2023-04-18T05:05:32.191Z,96809.94
2023-04-18T05:07:59.336Z,96817.91
2023-04-18T05:10:38.208Z,96812.09
2023-04-18T05:13:05.850Z,96814.00
2023-04-18T05:15:41.462Z,96820.72
2023-04-18T05:18:09.394Z,96818.63
2023-04-18T05:20:37.888Z,96813.38
2023-04-18T05:23:07.941Z,96819.72
2023-04-18T05:25:35.260Z,96822.22
2023-04-18T05:28:04.938Z,96831.47
2023-04-18T05:33:17.919Z,96829.88
2023-04-18T05:35:45.186Z,96831.78
2023-04-18T05:38:12.192Z,96824.84
2023-04-18T05:40:41.264Z,96826.06
2023-04-18T05:43:08.191Z,96825.69
2023-04-18T05:45:35.543Z,96826.63
2023-04-18T05:48:02.571Z,96835.28
2023-04-18T05:50:29.796Z,96834.63
2023-04-18T05:52:59.437Z,96837.19
2023-04-18T05:55:26.249Z,96827.53
2023-04-18T05:57:53.218Z,96826.31
2023-04-18T06:00:20.813Z,96826.06
2023-04-18T06:02:47.667Z,96826.34
2023-04-18T06:05:17.266Z,96826.66
2023-04-18T06:07:44.392Z,96819.28
2023-04-18T06:10:13.624Z,96819.34
2023-04-18T06:12:41.204Z,96825.78
2023-04-18T06:15:08.892Z,96817.72
2023-04-18T06:18:00.528Z,96824.94
2023-04-18T06:20:31.094Z,96832.94
2023-04-18T06:22:58.262Z,96832.00
2023-04-18T06:25:25.350Z,96830.34
2023-04-18T06:27:52.372Z,96825.38
2023-04-18T06:30:22.269Z,96816.75
2023-04-18T06:32:49.698Z,96819.00
2023-04-18T06:35:20.672Z,96825.72
2023-04-18T06:37:47.967Z,96820.72
2023-04-18T06:40:18.019Z,96819.56
2023-04-18T06:42:45.019Z,96821.13
2023-04-18T06:45:12.229Z,96813.66
2023-04-18T06:47:41.105Z,96820.72
2023-04-18T06:50:08.807Z,96823.09
2023-04-18T06:52:40.860Z,96823.34
2023-04-18T06:58:07.458Z,96821.84
2023-04-18T07:00:43.935Z,96812.25
2023-04-18T07:03:13.785Z,96815.09
2023-04-18T07:05:43.706Z,96826.91
2023-04-18T07:08:20.076Z,96826.34
2023-04-18T07:10:47.066Z,96823.75
2023-04-18T07:13:18.703Z,96824.50
2023-04-18T07:15:51.208Z,96815.50
2023-04-18T07:18:34.343Z,96819.41
2023-04-18T07:21:07.966Z,96820.03
2023-04-18T07:23:36.589Z,96820.22
2023-04-18T07:26:05.984Z,96818.38
2023-04-18T07:28:33.700Z,96822.16
2023-04-18T07:31:01.428Z,96820.63
2023-04-18T07:33:31.997Z,96820.47
2023-04-18T07:35:59.667Z,96830.28
2023-04-18T07:38:30.668Z,96825.69
2023-04-18T07:41:01.947Z,96822.94
2023-04-18T07:43:28.672Z,96824.78
2023-04-18T07:45:56.462Z,96825.44
2023-04-18T07:48:24.297Z,96830.09
2023-04-18T07:50:54.462Z,96835.75
2023-04-18T07:53:22.123Z,96836.72
2023-04-18T07:55:56.326Z,96836.97
2023-04-18T07:58:23.151Z,96845.34
2023-04-18T08:00:53.347Z,96853.50
2023-04-18T08:03:22.167Z,96847.75
2023-04-18T08:05:52.190Z,96848.66
2023-04-18T08:08:19.606Z,96850.38
2023-04-18T08:10:46.897Z,96849.25
2023-04-18T08:13:15.194Z,96851.81
2023-04-18T08:15:48.418Z,96842.25
2023-04-18T08:18:18.931Z,96847.44
2023-04-18T08:20:45.861Z,96852.78
2023-04-18T08:23:18.890Z,96854.94
2023-04-18T08:25:45.962Z,96854.41
2023-04-18T08:28:15.219Z,96856.38
2023-04-18T08:30:49.283Z,96867.78
2023-04-18T08:33:19.477Z,96870.75
2023-04-18T08:35:50.360Z,96866.06
2023-04-18T08:38:21.345Z,96872.00
2023-04-18T08:40:51.424Z,96872.63
2023-04-18T08:43:18.536Z,96878.53
2023-04-18T08:45:46.091Z,96873.16
2023-04-18T08:48:18.917Z,96877.41
2023-04-18T08:50:47.918Z,96870.78
2023-04-18T08:53:19.692Z,96875.06
2023-04-18T08:55:51.095Z,96873.22
2023-04-18T08:58:23.190Z,96874.25
2023-04-18T09:00:55.979Z,96872.09
2023-04-18T09:03:44.583Z,96875.81
2023-04-18T09:06:14.280Z,96871.09
2023-04-18T09:08:43.723Z,96866.75
2023-04-18T09:11:29.646Z,96864.78
2023-04-18T09:14:10.764Z,96863.50
2023-04-18T09:16:47.391Z,96860.50
2023-04-18T09:19:18.145Z,96875.72
2023-04-18T09:21:49.445Z,96875.56
2023-04-18T09:24:21.174Z,96873.41
2023-04-18T09:26:51.819Z,96872.41
2023-04-18T09:29:18.797Z,96875.34
2023-04-18T09:31:57.685Z,96875.72
2023-04-18T09:34:27.787Z,96871.06
2023-04-18T09:37:12.716Z,96876.78
2023-04-18T09:39:41.572Z,96877.34
2023-04-18T09:42:10.737Z,96877.41
2023-04-18T09:44:39.976Z,96881.94
2023-04-18T09:47:10.776Z,96877.78
2023-04-18T09:49:38.082Z,96880.00
2023-04-18T09:52:08.064Z,96880.59
2023-04-18T09:54:42.401Z,96869.06
2023-04-18T09:57:15.190Z,96870.28
2023-04-18T09:59:50.335Z,96856.78
2023-04-18T10:02:48.931Z,96860.09
2023-04-18T10:05:27.379Z,96852.25
2023-04-18T10:07:56.625Z,96852.03
2023-04-18T10:10:27.572Z,96853.44
2023-04-18T10:12:58.120Z,96849.91
2023-04-18T10:15:27.040Z,96852.44
2023-04-18T10:18:04.242Z,96846.59
2023-04-18T10:20:37.206Z,96852.22
2023-04-18T10:24:24.821Z,96855.38
2023-04-18T10:27:45.561Z,96860.41
2023-04-18T10:30:09.174Z,96864.94
2023-04-18T10:33:05.815Z,96856.06
2023-04-18T10:35:41.362Z,96865.47
2023-04-18T10:38:20.531Z,96869.88
2023-04-18T10:41:07.125Z,96868.31
2023-04-18T10:44:19.009Z,96874.13
2023-04-18T10:46:52.639Z,96885.53
2023-04-18T10:49:42.442Z,96897.59
2023-04-18T10:55:28.982Z,96919.19
2023-04-18T10:57:59.324Z,96933.81
2023-04-18T11:00:39.768Z,96931.50
2023-04-18T11:03:11.951Z,96923.38
2023-04-18T11:06:17.643Z,96913.38
2023-04-18T11:08:46.152Z,96918.22
2023-04-18T11:12:04.101Z,96919.09
2023-04-18T11:14:46.996Z,96919.34
2023-04-18T11:17:25.883Z,96907.69
2023-04-18T11:20:12.073Z,96902.19
2023-04-18T11:23:02.467Z,96899.44
2023-04-18T11:26:05.697Z,96895.41
2023-04-18T11:28:27.186Z,96906.91
2023-04-18T11:31:00.314Z,96912.22
2023-04-18T11:33:32.737Z,96909.19
2023-04-18T11:36:05.041Z,96906.16
2023-04-18T11:38:34.907Z,96897.41
2023-04-18T11:41:07.357Z,96896.00
2023-04-18T11:43:34.978Z,96901.16
2023-04-18T11:46:02.060Z,96898.38
2023-04-18T11:48:43.578Z,96903.81
2023-04-18T11:51:38.448Z,96899.50
2023-04-18T11:54:06.954Z,96899.75
2023-04-18T11:56:36.524Z,96904.28
2023-04-18T11:59:09.971Z,96907.25
2023-04-18T12:01:46.767Z,96908.44
2023-04-18T12:04:15.650Z,96896.50
2023-04-18T12:07:06.348Z,96897.34
2023-04-18T12:09:42.175Z,96894.69
2023-04-18T12:12:12.410Z,96893.69
2023-04-18T12:14:43.103Z,96890.97
2023-04-18T12:17:11.165Z,96892.31
2023-04-18T12:19:38.788Z,96895.59
2023-04-18T12:22:09.992Z,96886.19
2023-04-18T12:24:38.083Z,96884.53
2023-04-18T12:27:05.246Z,96878.38
2023-04-18T12:29:32.173Z,96878.03
2023-04-18T12:31:59.351Z,96881.44
2023-04-18T12:34:26.392Z,96883.72
2023-04-18T12:36:54.111Z,96888.44
2023-04-18T12:39:20.989Z,96891.63
2023-04-18T12:41:51.504Z,96899.53
2023-04-18T12:44:18.567Z,96894.84
2023-04-18T12:46:46.278Z,96905.75
2023-04-18T12:49:13.051Z,96903.75
2023-04-18T12:51:40.909Z,96911.63
2023-04-18T12:54:16.666Z,96918.31
2023-04-18T12:56:47.512Z,96910.66
2023-04-18T12:59:15.545Z,96915.34
2023-04-18T13:01:45.410Z,96913.53
2023-04-18T13:04:13.255Z,96914.66
2023-04-18T13:06:44.180Z,96914.66
2023-04-18T13:09:14.438Z,96915.69
2023-04-18T13:11:41.748Z,96911.28
2023-04-18T13:14:10.039Z,96914.75
2023-04-18T13:16:37.726Z,96915.19
2023-04-18T13:19:07.870Z,96907.78
2023-04-18T13:21:36.910Z,96904.97
2023-04-18T13:24:04.179Z,96900.81
2023-04-18T13:26:39.203Z,96906.91
2023-04-18T13:29:09.316Z,96909.03
2023-04-18T13:34:39.358Z,96904.81
2023-04-18T13:37:12.670Z,96911.91
2023-04-18T13:39:39.904Z,96904.28
2023-04-18T13:42:08.006Z,96908.91
2023-04-18T13:44:39.430Z,96917.75
2023-04-18T13:47:07.810Z,96914.81
2023-04-18T13:49:37.123Z,96912.41
2023-04-18T13:52:07.275Z,96912.59
2023-04-18T13:54:42.220Z,96909.78
2023-04-18T13:57:15.096Z,96913.25
2023-04-18T13:59:42.261Z,96904.28
2023-04-18T14:02:18.586Z,96909.25
2023-04-18T14:04:45.659Z,96911.19
2023-04-18T14:07:18.852Z,96906.47
2023-04-18T14:09:48.906Z,96901.06
2023-04-18T14:12:19.166Z,96892.34
2023-04-18T14:14:46.967Z,96889.00
2023-04-18T14:17:19.388Z,96890.34
2023-04-18T14:19:48.677Z,96883.66
2023-04-18T14:22:16.009Z,96887.94
2023-04-18T14:24:43.812Z,96875.66
2023-04-18T14:27:10.865Z,96891.78
2023-04-18T14:29:40.665Z,96890.50
2023-04-18T14:32:07.646Z,96885.22
2023-04-18T14:34:43.572Z,96876.84
2023-04-18T14:37:10.832Z,96890.09
2023-04-18T14:39:38.673Z,96883.53
2023-04-18T14:45:08.224Z,96878.00
2023-04-18T14:48:08.827Z,96880.91
2023-04-18T14:54:06.831Z,96874.31
2023-04-18T14:56:39.862Z,96881.13
2023-04-18T14:59:06.614Z,96878.56
2023-04-18T15:04:51.497Z,96877.56
2023-04-18T15:07:22.030Z,96885.78
2023-04-18T15:09:53.447Z,96883.13
2023-04-18T15:13:49.910Z,96891.16
2023-04-18T15:15:36.272Z,96889.31
2023-04-18T15:18:03.807Z,96893.81
2023-04-18T15:20:32.979Z,96894.28
2023-04-18T15:23:01.452Z,96894.47
2023-04-18T15:25:30.629Z,96881.06
2023-04-18T15:27:58.664Z,96886.50
2023-04-18T15:30:35.586Z,96882.56
2023-04-18T15:33:03.497Z,96877.22
2023-04-18T15:35:30.222Z,96874.56
2023-04-18T15:37:57.705Z,96872.19
2023-04-18T15:40:25.298Z,96876.75
2023-04-18T15:42:54.323Z,96871.16
2023-04-18T15:45:24.621Z,96879.13
2023-04-18T15:47:52.098Z,96872.50
2023-04-18T15:50:33.417Z,96883.13
2023-04-18T15:56:21.495Z,96875.81
2023-04-18T15:58:51.549Z,96872.66
2023-04-18T16:01:19.136Z,96866.22
2023-04-18T16:03:47.860Z,96866.22
2023-04-18T16:06:19.259Z,96879.59
2023-04-18T16:08:52.128Z,96880.44
2023-04-18T16:11:32.505Z,96881.56
2023-04-18T16:13:59.592Z,96880.06
2023-04-18T16:16:29.587Z,96885.41
2023-04-18T16:19:04.588Z,96886.66
2023-04-18T16:21:51.348Z,96889.09
2023-04-18T16:24:54.633Z,96885.25
2023-04-18T16:27:47.376Z,96894.59
2023-04-18T16:33:27.943Z,96902.47
2023-04-18T16:36:04.773Z,96895.84
2023-04-18T16:41:34.252Z,96901.31
2023-04-18T16:42:07.596Z,96903.13
2023-04-18T16:44:09.956Z,96893.59
2023-04-18T16:46:43.237Z,96903.28
2023-04-18T16:49:13.518Z,96912.16
2023-04-18T16:51:55.908Z,96911.63
2023-04-18T16:54:50.125Z,96914.16
2023-04-18T17:00:25.428Z,96906.66
2023-04-18T17:03:13.795Z,96909.56
2023-04-18T17:05:52.893Z,96916.50
2023-04-18T17:08:35.777Z,96911.41
2023-04-18T17:11:13.204Z,96912.19
2023-04-18T17:13:43.857Z,96911.53
2023-04-18T17:16:17.766Z,96915.53
2023-04-18T17:36:20.446Z,96923.69
2023-04-18T17:42:13.552Z,96932.31
2023-04-18T17:44:42.948Z,96935.69
2023-04-18T17:47:19.854Z,96939.59
2023-04-18T17:49:53.752Z,96937.41
2023-04-18T17:52:48.617Z,96937.00
2023-04-18T17:55:22.806Z,96930.22
2023-04-18T17:58:10.722Z,96940.09
2023-04-18T18:01:00.271Z,96935.84
2023-04-18T18:03:41.896Z,96943.09
2023-04-18T18:06:15.226Z,96933.81
2023-04-18T18:12:53.462Z,96943.09
2023-04-18T18:18:24.660Z,96943.22
2023-04-18T18:21:28.341Z,96939.63
2023-04-18T18:24:02.274Z,96945.03
2023-04-18T18:26:37.516Z,96947.91
2023-04-18T18:29:15.129Z,96941.81
2023-04-18T18:32:10.273Z,96944.31
2023-04-18T18:34:45.376Z,96940.84
2023-04-18T18:37:14.574Z,96934.75
2023-04-18T18:39:58.852Z,96938.38
2023-04-18T18:43:14.017Z,96928.53
2023-04-18T18:45:37.711Z,96929.94
2023-04-18T18:48:34.190Z,96932.28
2023-04-18T18:51:17.708Z,96932.56
2023-04-18T18:54:14.050Z,96927.31
2023-04-18T18:56:53.397Z,96928.97
2023-04-18T18:59:51.792Z,96927.97
2023-04-18T19:08:14.586Z,96931.69
2023-04-18T19:11:12.508Z,96933.75
2023-04-18T19:13:46.858Z,96927.38
2023-04-18T19:16:25.637Z,96923.91
2023-04-18T19:19:05.114Z,96925.56
2023-04-18T19:21:41.608Z,96921.38
2023-04-18T19:24:37.678Z,96919.41
2023-04-18T19:27:09.608Z,96924.66
2023-04-18T19:29:48.586Z,96924.59
2023-04-18T19:32:24.655Z,96921.28
2023-04-18T19:35:46.851Z,96918.94
2023-04-18T19:39:40.918Z,96924.03
2023-04-18T19:42:19.025Z,96923.22
2023-04-18T19:44:50.587Z,96915.03
2023-04-18T19:47:21.158Z,96914.88
2023-04-18T19:49:53.662Z,96899.00
2023-04-18T19:52:37.339Z,96911.19
2023-04-18T19:55:07.085Z,96907.72
2023-04-18T19:58:10.725Z,96913.69
2023-04-18T20:00:55.133Z,96910.06
2023-04-18T20:03:25.855Z,96903.00
2023-04-18T20:06:08.888Z,96903.97
2023-04-18T20:08:50.047Z,96901.47
2023-04-18T20:11:38.555Z,96898.19
2023-04-18T20:14:27.783Z,96900.13
2023-04-18T20:17:01.566Z,96894.19
2023-04-18T20:19:35.396Z,96889.06
2023-04-18T20:22:05.001Z,96896.41
2023-04-18T20:24:37.152Z,96891.03
2023-04-18T20:27:17.444Z,96886.88
2023-04-18T20:30:06.309Z,96879.84
2023-04-18T20:32:35.493Z,96881.78
2023-04-18T20:35:20.793Z,96889.38
2023-04-18T20:38:03.140Z,96879.69
2023-04-18T20:40:32.639Z,96889.81
2023-04-18T20:46:32.629Z,96883.84
2023-04-18T20:52:17.487Z,96881.22
2023-04-18T20:54:44.827Z,96884.97
2023-04-18T20:57:11.550Z,96883.31
2023-04-18T20:59:38.682Z,96874.16
2023-04-18T21:02:07.364Z,96879.13
2023-04-18T21:04:34.339Z,96879.13
2023-04-18T21:07:05.149Z,96887.19
2023-04-18T21:12:35.983Z,96893.28
2023-04-18T21:15:21.799Z,96892.00
2023-04-18T21:18:05.066Z,96890.22
2023-04-18T21:20:34.440Z,96893.31
2023-04-18T21:23:37.972Z,96886.13
2023-04-18T21:26:28.488Z,96891.69
2023-04-18T21:29:13.879Z,96875.06
2023-04-18T21:31:53.006Z,96880.88
2023-04-18T21:36:01.638Z,96882.81
2023-04-18T21:37:31.664Z,96885.44
2023-04-18T21:41:24.828Z,96863.72
2023-04-18T21:50:34.423Z,96864.31
2023-04-18T22:03:11.784Z,96870.44
2023-04-18T22:10:20.102Z,96863.50
2023-04-18T22:12:34.791Z,96856.22
2023-04-18T22:25:12.036Z,96844.78
2023-04-18T22:30:13.127Z,96843.91
2023-04-18T22:31:13.949Z,96854.47
2023-04-18T22:33:43.303Z,96850.88
2023-04-18T22:36:10.620Z,96852.06
2023-04-18T22:38:38.045Z,96853.34
2023-04-18T22:41:05.577Z,96847.78
2023-04-18T22:43:33.549Z,96851.25
2023-04-18T22:46:01.008Z,96843.91
2023-04-18T22:48:27.828Z,96844.47
2023-04-18T22:50:55.391Z,96842.56
2023-04-18T22:53:22.255Z,96847.13
2023-04-18T22:55:49.078Z,96838.44
2023-04-18T22:58:16.039Z,96834.28
2023-04-18T23:00:43.146Z,96830.38
2023-04-18T23:03:10.336Z,96831.22
2023-04-18T23:05:50.178Z,96832.03
2023-04-18T23:08:20.910Z,96832.84
2023-04-18T23:10:51.538Z,96825.50
2023-04-18T23:13:18.630Z,96817.91
2023-04-18T23:15:46.248Z,96812.38
2023-04-18T23:18:13.268Z,96813.47
2023-04-18T23:20:40.819Z,96822.88
2023-04-18T23:23:11.228Z,96815.09
2023-04-18T23:25:40.322Z,96807.09
2023-04-18T23:28:08.380Z,96807.38
2023-04-18T23:30:36.095Z,96813.47
2023-04-18T23:33:02.764Z,96805.03
2023-04-18T23:35:30.378Z,96804.38
2023-04-18T23:37:58.205Z,96802.28
2023-04-18T23:40:26.928Z,96791.78
2023-04-18T23:42:53.745Z,96801.31
2023-04-18T23:45:20.583Z,96793.59
2023-04-18T23:47:47.487Z,96786.66
2023-04-18T23:50:14.176Z,96790.53
2023-04-18T23:52:41.076Z,96787.75
2023-04-18T23:55:08.139Z,96782.50
2023-04-18T23:57:34.829Z,96785.81
